createdAt,value
2023-04-03T00:00:28.481Z,3.25
2023-04-03T00:01:01.507Z,3.25
2023-04-03T00:01:34.035Z,3.19
2023-04-03T00:02:06.146Z,3.19
2023-04-03T00:02:39.260Z,3.19
2023-04-03T00:03:11.488Z,3.19
2023-04-03T00:03:45.006Z,3.19
2023-04-03T00:04:17.047Z,3.19
2023-04-03T00:04:49.110Z,3.19
2023-04-03T00:05:22.016Z,3.19
2023-04-03T00:05:54.048Z,3.19
2023-04-03T00:06:26.339Z,3.19
2023-04-03T00:06:59.305Z,3.13
2023-04-03T00:07:31.475Z,3.13
2023-04-03T00:08:03.839Z,3.13
2023-04-03T00:08:36.772Z,3.13
2023-04-03T00:09:10.162Z,3.13
2023-04-03T00:09:42.627Z,3.13
2023-04-03T00:10:16.512Z,3.13
2023-04-03T00:10:49.931Z,3.13
2023-04-03T00:11:22.668Z,3.13
2023-04-03T00:11:54.898Z,3.06
2023-04-03T00:12:27.986Z,3.06
2023-04-03T00:13:00.156Z,3.06
2023-04-03T00:13:33.355Z,3.06
2023-04-03T00:14:06.510Z,3.06
2023-04-03T00:14:38.558Z,3.06
2023-04-03T00:15:11.011Z,3.06
2023-04-03T00:15:47.034Z,3.06
2023-04-03T00:16:19.204Z,3.06
2023-04-03T00:16:51.320Z,3.06
2023-04-03T00:17:24.396Z,3.06
2023-04-03T00:17:59.106Z,3.00
2023-04-03T00:18:34.971Z,3.00
2023-04-03T00:19:07.078Z,3.00
2023-04-03T00:19:40.084Z,3.00
2023-04-03T00:20:12.244Z,3.00
2023-04-03T00:20:44.389Z,3.00
2023-04-03T00:21:25.151Z,3.00
2023-04-03T00:21:57.455Z,3.00
2023-04-03T00:22:29.737Z,2.94
2023-04-03T00:23:02.366Z,2.94
2023-04-03T00:23:35.685Z,2.94
2023-04-03T00:24:08.012Z,2.94
2023-04-03T00:24:40.037Z,2.94
2023-04-03T00:25:12.958Z,2.94
2023-04-03T00:25:46.433Z,2.94
2023-04-03T00:26:19.329Z,2.94
2023-04-03T00:26:51.397Z,2.94
2023-04-03T00:27:23.427Z,2.94
2023-04-03T00:27:55.698Z,3.00
2023-04-03T00:28:28.874Z,3.00
2023-04-03T00:29:00.805Z,3.00
2023-04-03T00:29:32.779Z,3.00
2023-04-03T00:30:06.178Z,2.94
2023-04-03T00:30:39.502Z,2.94
2023-04-03T00:31:11.646Z,2.94
2023-04-03T00:31:44.666Z,2.94
2023-04-03T00:32:16.673Z,2.94
2023-04-03T00:32:49.167Z,2.94
2023-04-03T00:33:22.917Z,2.88
2023-04-03T00:33:55.045Z,2.88
2023-04-03T00:34:27.072Z,2.88
2023-04-03T00:34:59.990Z,2.94
2023-04-03T00:35:32.337Z,2.94
2023-04-03T00:36:08.347Z,2.94
2023-04-03T00:36:41.493Z,2.94
2023-04-03T00:37:13.615Z,2.94
2023-04-03T00:37:45.967Z,2.88
2023-04-03T00:38:19.552Z,2.94
2023-04-03T00:38:51.777Z,2.94
2023-04-03T00:39:24.034Z,2.88
2023-04-03T00:39:57.229Z,2.88
2023-04-03T00:40:34.432Z,2.88
2023-04-03T00:41:09.516Z,2.88
2023-04-03T00:41:41.546Z,2.88
2023-04-03T00:42:13.666Z,2.88
2023-04-03T00:42:48.516Z,2.94
2023-04-03T00:43:24.225Z,2.88
2023-04-03T00:43:56.289Z,2.88
2023-04-03T00:45:02.589Z,2.88
2023-04-03T00:45:36.962Z,2.88
2023-04-03T00:46:10.175Z,2.88
2023-04-03T00:46:42.479Z,2.88
2023-04-03T00:47:17.618Z,2.81
2023-04-03T00:47:50.842Z,2.81
2023-04-03T00:48:25.005Z,2.81
2023-04-03T00:48:58.285Z,2.81
2023-04-03T00:49:30.510Z,2.81
2023-04-03T00:50:03.275Z,2.81
2023-04-03T00:50:39.366Z,2.81
2023-04-03T00:51:14.993Z,2.75
2023-04-03T00:51:48.457Z,2.75
2023-04-03T00:52:24.214Z,2.75
2023-04-03T00:52:56.976Z,2.75
2023-04-03T00:53:33.033Z,2.69
2023-04-03T00:54:07.204Z,2.69
2023-04-03T00:54:41.292Z,2.69
2023-04-03T00:55:15.631Z,2.69
2023-04-03T00:55:49.263Z,2.69
2023-04-03T00:56:27.096Z,2.69
2023-04-03T00:56:59.676Z,2.63
2023-04-03T00:57:32.578Z,2.63
2023-04-03T00:58:08.175Z,2.63
2023-04-03T00:58:44.799Z,2.63
2023-04-03T00:59:23.080Z,2.63
2023-04-03T01:00:00.076Z,2.63
2023-04-03T01:00:32.365Z,2.63
2023-04-03T01:01:09.871Z,2.63
2023-04-03T01:01:43.353Z,2.63
2023-04-03T01:02:15.688Z,2.56
2023-04-03T01:02:48.901Z,2.56
2023-04-03T01:03:21.529Z,2.56
2023-04-03T01:03:53.606Z,2.56
2023-04-03T01:04:29.959Z,2.50
2023-04-03T01:05:02.462Z,2.50
2023-04-03T01:05:35.584Z,2.50
2023-04-03T01:06:08.007Z,2.50
2023-04-03T01:06:43.081Z,2.44
2023-04-03T01:07:18.717Z,2.44
2023-04-03T01:07:52.333Z,2.44
2023-04-03T01:08:24.461Z,2.44
2023-04-03T01:08:57.899Z,2.38
2023-04-03T01:09:30.692Z,2.38
2023-04-03T01:10:05.800Z,2.38
2023-04-03T01:10:38.932Z,2.31
2023-04-03T01:11:11.229Z,2.31
2023-04-03T01:11:44.684Z,2.31
2023-04-03T01:12:19.224Z,2.25
2023-04-03T01:12:52.594Z,2.25
2023-04-03T01:13:27.463Z,2.25
2023-04-03T01:14:02.707Z,2.25
2023-04-03T01:14:34.718Z,2.25
2023-04-03T01:15:09.365Z,2.25
2023-04-03T01:15:45.413Z,2.31
2023-04-03T01:16:18.142Z,2.31
2023-04-03T01:16:55.957Z,2.31
2023-04-03T01:17:30.500Z,2.31
2023-04-03T01:18:02.710Z,2.38
2023-04-03T01:18:37.797Z,2.38
2023-04-03T01:19:16.975Z,2.38
2023-04-03T01:19:54.386Z,2.38
2023-04-03T01:21:09.076Z,2.38
2023-04-03T01:22:04.804Z,2.38
2023-04-03T01:22:44.095Z,2.38
2023-04-03T01:23:30.505Z,2.38
2023-04-03T01:24:17.001Z,2.31
2023-04-03T01:24:49.085Z,2.25
2023-04-03T01:25:21.101Z,2.25
2023-04-03T01:25:56.242Z,2.19
2023-04-03T01:26:29.354Z,2.25
2023-04-03T01:27:05.836Z,2.19
2023-04-03T01:27:37.844Z,2.19
2023-04-03T01:28:11.712Z,2.19
2023-04-03T01:28:44.759Z,2.13
2023-04-03T01:29:16.815Z,2.13
2023-04-03T01:29:49.106Z,2.06
2023-04-03T01:30:26.125Z,2.06
2023-04-03T01:31:04.926Z,2.06
2023-04-03T01:31:52.566Z,2.00
2023-04-03T01:32:25.814Z,2.00
2023-04-03T01:32:58.117Z,1.94
2023-04-03T01:33:30.671Z,1.94
2023-04-03T01:34:07.621Z,1.94
2023-04-03T01:34:40.695Z,1.94
2023-04-03T01:35:13.031Z,1.94
2023-04-03T01:35:45.027Z,1.88
2023-04-03T01:36:21.933Z,1.88
2023-04-03T01:36:54.677Z,1.88
2023-04-03T01:37:27.433Z,1.88
2023-04-03T01:38:00.350Z,1.88
2023-04-03T01:38:32.642Z,1.88
2023-04-03T01:39:04.751Z,1.88
2023-04-03T01:39:38.104Z,1.88
2023-04-03T01:40:10.811Z,1.88
2023-04-03T01:40:42.874Z,1.88
2023-04-03T01:41:16.929Z,1.88
2023-04-03T01:41:50.322Z,1.88
2023-04-03T01:42:42.075Z,1.94
2023-04-03T01:43:15.070Z,1.94
2023-04-03T01:43:47.068Z,2.00
2023-04-03T01:44:19.404Z,2.00
2023-04-03T01:44:52.353Z,2.00
2023-04-03T01:45:24.322Z,2.00
2023-04-03T01:45:56.766Z,2.00
2023-04-03T01:46:30.543Z,2.06
2023-04-03T01:47:07.206Z,2.06
2023-04-03T01:47:39.213Z,2.06
2023-04-03T01:48:12.911Z,2.06
2023-04-03T01:48:44.910Z,2.06
2023-04-03T01:49:16.910Z,2.06
2023-04-03T01:49:49.871Z,2.06
2023-04-03T01:50:21.822Z,2.06
2023-04-03T01:50:54.574Z,2.06
2023-04-03T01:51:27.753Z,2.06
2023-04-03T01:51:59.871Z,2.06
2023-04-03T01:52:31.961Z,2.00
2023-04-03T01:53:04.015Z,2.00
2023-04-03T01:53:36.942Z,2.00
2023-04-03T01:54:08.996Z,2.06
2023-04-03T01:54:41.902Z,2.06
2023-04-03T01:55:14.151Z,2.00
2023-04-03T01:55:46.152Z,2.00
2023-04-03T01:56:18.172Z,2.00
2023-04-03T01:56:52.888Z,2.00
2023-04-03T01:57:26.144Z,2.00
2023-04-03T01:57:58.158Z,2.00
2023-04-03T01:58:31.302Z,2.00
2023-04-03T01:59:03.278Z,2.00
2023-04-03T01:59:35.348Z,2.00
2023-04-03T02:00:10.333Z,1.94
2023-04-03T02:01:50.596Z,1.94
2023-04-03T02:02:23.959Z,2.00
2023-04-03T02:02:57.909Z,1.94
2023-04-03T02:03:32.888Z,1.94
2023-04-03T02:04:05.000Z,1.94
2023-04-03T02:04:37.030Z,1.94
2023-04-03T02:05:10.788Z,1.94
2023-04-03T02:05:42.790Z,1.94
2023-04-03T02:06:15.921Z,1.94
2023-04-03T02:06:49.041Z,1.94
2023-04-03T02:07:21.145Z,1.94
2023-04-03T02:07:53.136Z,1.94
2023-04-03T02:08:26.352Z,1.94
2023-04-03T02:08:58.372Z,1.94
2023-04-03T02:09:31.402Z,1.94
2023-04-03T02:10:04.041Z,1.94
2023-04-03T02:10:36.381Z,2.00
2023-04-03T02:11:09.456Z,2.00
2023-04-03T02:11:41.549Z,2.00
2023-04-03T02:12:13.543Z,2.00
2023-04-03T02:12:46.768Z,2.00
2023-04-03T02:13:19.247Z,2.00
2023-04-03T02:13:51.290Z,2.06
2023-04-03T02:14:24.643Z,2.06
2023-04-03T02:14:56.703Z,2.06
2023-04-03T02:15:28.650Z,2.06
2023-04-03T02:16:02.206Z,2.00
2023-04-03T02:16:34.241Z,2.00
2023-04-03T02:17:09.552Z,2.00
2023-04-03T02:17:44.066Z,2.00
2023-04-03T02:18:17.305Z,2.00
2023-04-03T02:18:49.305Z,2.00
2023-04-03T02:19:22.558Z,2.00
2023-04-03T02:19:54.661Z,2.00
2023-04-03T02:20:27.138Z,2.00
2023-04-03T02:20:59.110Z,2.00
2023-04-03T02:21:33.199Z,2.00
2023-04-03T02:22:05.871Z,2.00
2023-04-03T02:22:37.950Z,2.00
2023-04-03T02:23:11.271Z,2.00
2023-04-03T02:23:43.360Z,2.00
2023-04-03T02:24:15.753Z,1.94
2023-04-03T02:24:48.685Z,1.94
2023-04-03T02:25:21.357Z,1.94
2023-04-03T02:25:53.294Z,1.94
2023-04-03T02:26:26.765Z,1.94
2023-04-03T02:26:58.852Z,1.94
2023-04-03T02:27:31.047Z,1.94
2023-04-03T02:28:03.049Z,1.94
2023-04-03T02:28:37.536Z,1.94
2023-04-03T02:29:09.545Z,1.94
2023-04-03T02:29:41.522Z,1.94
2023-04-03T02:30:15.706Z,1.94
2023-04-03T02:30:47.858Z,1.88
2023-04-03T02:31:19.930Z,1.88
2023-04-03T02:31:52.670Z,1.88
2023-04-03T02:32:26.694Z,1.88
2023-04-03T02:33:00.402Z,1.88
2023-04-03T02:33:33.830Z,1.88
2023-04-03T02:34:06.604Z,1.88
2023-04-03T02:34:40.034Z,1.81
2023-04-03T02:35:14.038Z,1.81
2023-04-03T02:35:54.075Z,1.81
2023-04-03T02:36:28.140Z,1.81
2023-04-03T02:37:03.678Z,1.75
2023-04-03T02:37:35.843Z,1.75
2023-04-03T02:38:09.083Z,1.75
2023-04-03T02:38:41.398Z,1.75
2023-04-03T02:39:15.130Z,1.75
2023-04-03T02:39:47.756Z,1.75
2023-04-03T02:40:20.925Z,1.75
2023-04-03T02:40:53.045Z,1.75
2023-04-03T02:41:26.517Z,1.69
2023-04-03T02:42:00.196Z,1.69
2023-04-03T02:42:33.232Z,1.69
2023-04-03T02:43:05.714Z,1.69
2023-04-03T02:43:39.675Z,1.69
2023-04-03T02:44:12.467Z,1.69
2023-04-03T02:44:44.476Z,1.75
2023-04-03T02:45:17.534Z,1.75
2023-04-03T02:45:49.505Z,1.75
2023-04-03T02:46:21.536Z,1.75
2023-04-03T02:46:53.554Z,1.81
2023-04-03T02:47:26.505Z,1.81
2023-04-03T02:47:59.988Z,1.81
2023-04-03T02:48:32.272Z,1.81
2023-04-03T02:49:06.721Z,1.88
2023-04-03T02:49:39.080Z,1.88
2023-04-03T02:50:11.174Z,1.88
2023-04-03T02:50:44.187Z,1.88
2023-04-03T02:51:16.519Z,1.88
2023-04-03T02:51:48.652Z,1.88
2023-04-03T02:52:20.763Z,1.88
2023-04-03T02:52:54.968Z,1.88
2023-04-03T02:53:26.958Z,1.88
2023-04-03T02:53:59.175Z,1.88
2023-04-03T02:54:36.748Z,1.88
2023-04-03T02:55:14.935Z,1.88
2023-04-03T02:55:47.071Z,1.81
2023-04-03T02:56:21.190Z,1.81
2023-04-03T02:56:53.359Z,1.81
2023-04-03T02:57:25.597Z,1.81
2023-04-03T02:57:58.647Z,1.81
2023-04-03T02:58:30.737Z,1.81
2023-04-03T02:59:04.509Z,1.81
2023-04-03T02:59:41.432Z,1.81
2023-04-03T03:00:15.457Z,1.81
2023-04-03T03:00:47.460Z,1.81
2023-04-03T03:01:20.972Z,1.81
2023-04-03T03:01:53.578Z,1.81
2023-04-03T03:02:25.802Z,1.81
2023-04-03T03:02:58.906Z,1.81
2023-04-03T03:03:32.359Z,1.81
2023-04-03T03:04:04.351Z,1.81
2023-04-03T03:04:37.815Z,1.81
2023-04-03T03:05:10.051Z,1.81
2023-04-03T03:05:42.103Z,1.81
2023-04-03T03:06:17.354Z,1.81
2023-04-03T03:06:49.512Z,1.81
2023-04-03T03:07:22.509Z,1.75
2023-04-03T03:07:54.568Z,1.75
2023-04-03T03:08:26.508Z,1.75
2023-04-03T03:08:59.478Z,1.75
2023-04-03T03:09:31.481Z,1.75
2023-04-03T03:10:04.732Z,1.75
2023-04-03T03:10:38.170Z,1.75
2023-04-03T03:11:11.245Z,1.75
2023-04-03T03:11:43.498Z,1.75
2023-04-03T03:12:16.730Z,1.75
2023-04-03T03:12:48.777Z,1.69
2023-04-03T03:13:21.076Z,1.69
2023-04-03T03:13:54.230Z,1.69
2023-04-03T03:14:26.208Z,1.69
2023-04-03T03:14:58.211Z,1.69
2023-04-03T03:15:31.149Z,1.69
2023-04-03T03:16:03.632Z,1.69
2023-04-03T03:16:39.349Z,1.69
2023-04-03T03:17:11.467Z,1.69
2023-04-03T03:17:44.766Z,1.69
2023-04-03T03:18:17.850Z,1.63
2023-04-03T03:18:51.181Z,1.63
2023-04-03T03:19:24.385Z,1.63
2023-04-03T03:19:57.786Z,1.63
2023-04-03T03:20:33.207Z,1.69
2023-04-03T03:21:07.202Z,1.69
2023-04-03T03:21:45.163Z,1.69
2023-04-03T03:22:20.593Z,1.69
2023-04-03T03:22:53.158Z,1.69
2023-04-03T03:23:27.739Z,1.69
2023-04-03T03:24:02.187Z,1.69
2023-04-03T03:24:36.451Z,1.69
2023-04-03T03:25:09.685Z,1.63
2023-04-03T03:25:43.795Z,1.63
2023-04-03T03:26:16.010Z,1.63
2023-04-03T03:26:48.165Z,1.63
2023-04-03T03:27:21.692Z,1.63
2023-04-03T03:27:54.156Z,1.63
2023-04-03T03:28:26.822Z,1.63
2023-04-03T03:28:59.929Z,1.56
2023-04-03T03:29:32.353Z,1.56
2023-04-03T03:30:06.168Z,1.56
2023-04-03T03:30:39.691Z,1.56
2023-04-03T03:31:12.140Z,1.56
2023-04-03T03:31:45.627Z,1.56
2023-04-03T03:32:18.942Z,1.56
2023-04-03T03:32:51.073Z,1.56
2023-04-03T03:33:23.155Z,1.56
2023-04-03T03:33:57.465Z,1.56
2023-04-03T03:34:29.485Z,1.56
2023-04-03T03:35:02.014Z,1.50
2023-04-03T03:35:36.280Z,1.50
2023-04-03T03:36:08.774Z,1.50
2023-04-03T03:36:43.209Z,1.50
2023-04-03T03:37:15.333Z,1.50
2023-04-03T03:37:47.301Z,1.50
2023-04-03T03:38:20.759Z,1.50
2023-04-03T03:38:52.867Z,1.50
2023-04-03T03:39:25.892Z,1.50
2023-04-03T03:39:57.889Z,1.50
2023-04-03T03:40:29.911Z,1.56
2023-04-03T03:41:03.489Z,1.50
2023-04-03T03:41:37.867Z,1.56
2023-04-03T03:42:10.609Z,1.56
2023-04-03T03:42:43.612Z,1.50
2023-04-03T03:43:15.736Z,1.50
2023-04-03T03:43:48.736Z,1.50
2023-04-03T03:44:22.382Z,1.50
2023-04-03T03:44:54.450Z,1.50
2023-04-03T03:45:27.499Z,1.50
2023-04-03T03:45:59.501Z,1.50
2023-04-03T03:46:32.932Z,1.50
2023-04-03T03:47:07.112Z,1.50
2023-04-03T03:47:39.153Z,1.50
2023-04-03T03:48:11.392Z,1.44
2023-04-03T03:48:44.448Z,1.44
2023-04-03T03:49:18.115Z,1.44
2023-04-03T03:49:50.293Z,1.44
2023-04-03T03:50:23.247Z,1.44
2023-04-03T03:50:56.144Z,1.38
2023-04-03T03:51:31.973Z,1.38
2023-04-03T03:52:05.161Z,1.38
2023-04-03T03:52:37.182Z,1.38
2023-04-03T03:53:09.195Z,1.38
2023-04-03T03:53:42.257Z,1.38
2023-04-03T03:54:19.019Z,1.44
2023-04-03T03:54:51.475Z,1.44
2023-04-03T03:55:27.648Z,1.44
2023-04-03T03:56:01.128Z,1.44
2023-04-03T03:56:35.829Z,1.44
2023-04-03T03:57:08.891Z,1.38
2023-04-03T03:57:41.667Z,1.38
2023-04-03T03:58:13.860Z,1.38
2023-04-03T03:58:46.390Z,1.38
2023-04-03T03:59:20.061Z,1.38
2023-04-03T03:59:53.776Z,1.38
2023-04-03T04:00:26.293Z,1.38
2023-04-03T04:01:03.284Z,1.31
2023-04-03T04:01:36.138Z,1.31
2023-04-03T04:02:09.412Z,1.31
2023-04-03T04:02:41.474Z,1.31
2023-04-03T04:03:15.352Z,1.31
2023-04-03T04:03:49.738Z,1.31
2023-04-03T04:04:27.071Z,1.31
2023-04-03T04:04:59.030Z,1.31
2023-04-03T04:05:32.297Z,1.31
2023-04-03T04:06:06.495Z,1.25
2023-04-03T04:06:38.536Z,1.25
2023-04-03T04:07:14.681Z,1.25
2023-04-03T04:07:46.865Z,1.25
2023-04-03T04:08:19.054Z,1.25
2023-04-03T04:08:52.570Z,1.25
2023-04-03T04:09:24.592Z,1.19
2023-04-03T04:09:56.700Z,1.19
2023-04-03T04:10:29.777Z,1.19
2023-04-03T04:11:03.073Z,1.19
2023-04-03T04:11:35.620Z,1.19
2023-04-03T04:12:09.245Z,1.19
2023-04-03T04:12:41.654Z,1.19
2023-04-03T04:13:13.615Z,1.19
2023-04-03T04:13:47.244Z,1.19
2023-04-03T04:14:21.379Z,1.19
2023-04-03T04:14:53.564Z,1.13
2023-04-03T04:15:27.915Z,1.13
2023-04-03T04:16:01.133Z,1.13
2023-04-03T04:16:33.229Z,1.13
2023-04-03T04:17:11.771Z,1.13
2023-04-03T04:17:43.757Z,1.13
2023-04-03T04:18:18.806Z,1.13
2023-04-03T04:18:54.683Z,1.13
2023-04-03T04:19:28.423Z,1.13
2023-04-03T04:20:00.504Z,1.19
2023-04-03T04:20:33.574Z,1.19
2023-04-03T04:21:05.884Z,1.19
2023-04-03T04:21:38.130Z,1.19
2023-04-03T04:22:11.179Z,1.25
2023-04-03T04:22:43.163Z,1.25
2023-04-03T04:23:15.319Z,1.25
2023-04-03T04:23:48.393Z,1.25
2023-04-03T04:24:20.704Z,1.25
2023-04-03T04:24:57.210Z,1.31
2023-04-03T04:25:30.401Z,1.31
2023-04-03T04:26:02.482Z,1.31
2023-04-03T04:26:37.962Z,1.31
2023-04-03T04:27:11.417Z,1.31
2023-04-03T04:27:43.534Z,1.38
2023-04-03T04:28:16.762Z,1.38
2023-04-03T04:28:50.488Z,1.38
2023-04-03T04:29:24.229Z,1.38
2023-04-03T04:29:59.365Z,1.38
2023-04-03T04:30:32.315Z,1.38
2023-04-03T04:31:05.504Z,1.38
2023-04-03T04:31:37.814Z,1.31
2023-04-03T04:32:10.040Z,1.31
2023-04-03T04:32:43.084Z,1.31
2023-04-03T04:33:15.934Z,1.31
2023-04-03T04:33:48.384Z,1.31
2023-04-03T04:34:22.247Z,1.31
2023-04-03T04:34:55.992Z,1.31
2023-04-03T04:35:28.264Z,1.31
2023-04-03T04:36:02.032Z,1.31
2023-04-03T04:36:34.331Z,1.31
2023-04-03T04:37:06.548Z,1.31
2023-04-03T04:37:39.656Z,1.31
2023-04-03T04:38:11.815Z,1.38
2023-04-03T04:38:43.938Z,1.38
2023-04-03T04:39:17.061Z,1.38
2023-04-03T04:39:49.065Z,1.38
2023-04-03T04:40:21.780Z,1.38
2023-04-03T04:40:55.008Z,1.38
2023-04-03T04:41:27.595Z,1.38
2023-04-03T04:41:59.632Z,1.38
2023-04-03T04:42:34.044Z,1.38
2023-04-03T04:43:07.292Z,1.38
2023-04-03T04:43:39.803Z,1.38
2023-04-03T04:44:12.020Z,1.38
2023-04-03T04:44:45.347Z,1.38
2023-04-03T04:45:19.563Z,1.38
2023-04-03T04:46:02.952Z,1.31
2023-04-03T04:46:35.985Z,1.31
2023-04-03T04:47:08.240Z,1.31
2023-04-03T04:47:41.392Z,1.31
2023-04-03T04:48:13.417Z,1.31
2023-04-03T04:48:45.952Z,1.25
2023-04-03T04:49:19.981Z,1.25
2023-04-03T04:49:52.150Z,1.25
2023-04-03T04:50:26.531Z,1.19
2023-04-03T04:50:59.656Z,1.19
2023-04-03T04:51:41.141Z,1.19
2023-04-03T04:52:17.128Z,1.19
2023-04-03T04:52:50.118Z,1.19
2023-04-03T04:53:22.120Z,1.19
2023-04-03T04:53:56.042Z,1.19
2023-04-03T04:54:29.730Z,1.13
2023-04-03T04:55:02.865Z,1.13
2023-04-03T04:55:36.096Z,1.13
2023-04-03T04:56:08.480Z,1.13
2023-04-03T04:56:41.968Z,1.13
2023-04-03T04:57:15.479Z,1.13
2023-04-03T04:57:47.806Z,1.13
2023-04-03T04:58:21.179Z,1.13
2023-04-03T04:58:57.762Z,1.13
2023-04-03T04:59:31.154Z,1.13
2023-04-03T05:00:06.470Z,1.19
2023-04-03T05:00:38.464Z,1.19
2023-04-03T05:01:13.204Z,1.13
2023-04-03T05:01:57.360Z,1.19
2023-04-03T05:02:29.522Z,1.13
2023-04-03T05:03:01.721Z,1.13
2023-04-03T05:03:35.315Z,1.13
2023-04-03T05:04:07.545Z,1.19
2023-04-03T05:04:40.009Z,1.19
2023-04-03T05:05:19.940Z,1.19
2023-04-03T05:05:53.382Z,1.19
2023-04-03T05:06:26.402Z,1.19
2023-04-03T05:07:00.965Z,1.19
2023-04-03T05:07:36.675Z,1.19
2023-04-03T05:08:10.325Z,1.19
2023-04-03T05:08:44.480Z,1.19
2023-04-03T05:09:16.673Z,1.19
2023-04-03T05:09:51.160Z,1.19
2023-04-03T05:10:23.553Z,1.25
2023-04-03T05:10:56.463Z,1.25
2023-04-03T05:11:30.710Z,1.25
2023-04-03T05:12:03.964Z,1.25
2023-04-03T05:12:43.166Z,1.25
2023-04-03T05:13:15.832Z,1.25
2023-04-03T05:13:48.175Z,1.25
2023-04-03T05:14:21.357Z,1.25
2023-04-03T05:14:53.391Z,1.25
2023-04-03T05:15:25.773Z,1.25
2023-04-03T05:15:58.865Z,1.25
2023-04-03T05:16:31.061Z,1.25
2023-04-03T05:17:03.712Z,1.25
2023-04-03T05:17:40.226Z,1.25
2023-04-03T05:18:16.213Z,1.25
2023-04-03T05:18:48.257Z,1.25
2023-04-03T05:19:25.479Z,1.25
2023-04-03T05:19:57.470Z,1.25
2023-04-03T05:20:32.927Z,1.25
2023-04-03T05:21:06.621Z,1.25
2023-04-03T05:21:38.634Z,1.25
2023-04-03T05:22:16.619Z,1.25
2023-04-03T05:22:48.641Z,1.19
2023-04-03T05:23:20.629Z,1.19
2023-04-03T05:23:54.016Z,1.19
2023-04-03T05:24:27.140Z,1.19
2023-04-03T05:24:59.169Z,1.19
2023-04-03T05:25:32.254Z,1.19
2023-04-03T05:26:04.684Z,1.19
2023-04-03T05:26:37.017Z,1.19
2023-04-03T05:27:10.424Z,1.19
2023-04-03T05:27:45.432Z,1.19
2023-04-03T05:28:18.188Z,1.19
2023-04-03T05:28:52.279Z,1.19
2023-04-03T05:29:25.256Z,1.19
2023-04-03T05:29:57.300Z,1.19
2023-04-03T05:30:30.351Z,1.19
2023-04-03T05:31:02.354Z,1.19
2023-04-03T05:31:39.879Z,1.19
2023-04-03T05:32:15.017Z,1.19
2023-04-03T05:32:47.118Z,1.19
2023-04-03T05:33:27.249Z,1.19
2023-04-03T05:34:01.805Z,1.25
2023-04-03T05:34:36.520Z,1.25
2023-04-03T05:35:09.941Z,1.25
2023-04-03T05:35:42.560Z,1.25
2023-04-03T05:36:20.221Z,1.25
2023-04-03T05:36:56.206Z,1.25
2023-04-03T05:37:28.748Z,1.25
2023-04-03T05:38:02.648Z,1.31
2023-04-03T05:38:35.135Z,1.31
2023-04-03T05:39:07.213Z,1.31
2023-04-03T05:39:43.502Z,1.31
2023-04-03T05:40:18.512Z,1.31
2023-04-03T05:40:52.524Z,1.31
2023-04-03T05:41:25.929Z,1.31
2023-04-03T05:41:58.132Z,1.31
2023-04-03T05:42:31.627Z,1.31
2023-04-03T05:43:04.050Z,1.38
2023-04-03T05:43:40.072Z,1.38
2023-04-03T05:44:14.953Z,1.38
2023-04-03T05:44:51.065Z,1.38
2023-04-03T05:45:23.095Z,1.38
2023-04-03T05:45:56.241Z,1.31
2023-04-03T05:46:31.035Z,1.31
2023-04-03T05:47:07.576Z,1.38
2023-04-03T05:47:39.603Z,1.38
2023-04-03T05:48:13.554Z,1.38
2023-04-03T05:48:47.008Z,1.38
2023-04-03T05:49:22.763Z,1.38
2023-04-03T05:49:54.738Z,1.38
2023-04-03T05:50:27.774Z,1.38
2023-04-03T05:51:00.030Z,1.38
2023-04-03T05:51:36.560Z,1.38
2023-04-03T05:52:23.125Z,1.38
2023-04-03T05:52:59.156Z,1.38
2023-04-03T05:53:37.568Z,1.44
2023-04-03T05:54:14.723Z,1.44
2023-04-03T05:54:49.206Z,1.44
2023-04-03T05:55:26.504Z,1.44
2023-04-03T05:55:58.636Z,1.44
2023-04-03T05:56:32.407Z,1.44
2023-04-03T05:57:04.547Z,1.44
2023-04-03T05:57:37.605Z,1.44
2023-04-03T05:58:11.702Z,1.50
2023-04-03T05:58:45.224Z,1.50
2023-04-03T05:59:17.422Z,1.50
2023-04-03T05:59:49.503Z,1.50
2023-04-03T06:00:23.547Z,1.50
2023-04-03T06:01:06.569Z,1.50
2023-04-03T06:01:39.817Z,1.56
2023-04-03T06:02:12.488Z,1.56
2023-04-03T06:02:45.780Z,1.56
2023-04-03T06:03:23.851Z,1.56
2023-04-03T06:03:59.639Z,1.56
2023-04-03T06:04:32.119Z,1.56
2023-04-03T06:05:06.492Z,1.56
2023-04-03T06:05:38.787Z,1.56
2023-04-03T06:06:14.217Z,1.56
2023-04-03T06:06:52.432Z,1.63
2023-04-03T06:07:29.080Z,1.56
2023-04-03T06:08:01.418Z,1.63
2023-04-03T06:08:35.094Z,1.63
2023-04-03T06:09:07.614Z,1.63
2023-04-03T06:09:40.820Z,1.63
2023-04-03T06:10:13.369Z,1.63
2023-04-03T06:10:45.764Z,1.63
2023-04-03T06:11:18.750Z,1.63
2023-04-03T06:11:51.245Z,1.69
2023-04-03T06:12:24.737Z,1.69
2023-04-03T06:12:56.922Z,1.69
2023-04-03T06:13:30.452Z,1.69
2023-04-03T06:14:02.487Z,1.75
2023-04-03T06:14:36.130Z,1.75
2023-04-03T06:15:10.963Z,1.75
2023-04-03T06:15:43.990Z,1.75
2023-04-03T06:16:17.147Z,1.81
2023-04-03T06:16:49.313Z,1.81
2023-04-03T06:17:22.340Z,1.81
2023-04-03T06:17:54.448Z,1.81
2023-04-03T06:18:27.791Z,1.81
2023-04-03T06:18:59.798Z,1.88
2023-04-03T06:19:31.942Z,1.88
2023-04-03T06:20:05.543Z,1.88
2023-04-03T06:20:38.218Z,1.88
2023-04-03T06:21:10.702Z,1.88
2023-04-03T06:21:43.672Z,1.94
2023-04-03T06:22:17.321Z,1.94
2023-04-03T06:22:52.492Z,1.94
2023-04-03T06:23:24.552Z,1.94
2023-04-03T06:23:56.536Z,1.94
2023-04-03T06:24:29.502Z,2.00
2023-04-03T06:25:01.474Z,2.00
2023-04-03T06:25:34.654Z,2.00
2023-04-03T06:26:08.097Z,2.00
2023-04-03T06:26:40.056Z,2.06
2023-04-03T06:27:12.554Z,2.06
2023-04-03T06:27:45.758Z,2.06
2023-04-03T06:28:31.509Z,2.06
2023-04-03T06:29:06.696Z,2.13
2023-04-03T06:29:38.693Z,2.13
2023-04-03T06:30:12.123Z,2.13
2023-04-03T06:30:44.096Z,2.19
2023-04-03T06:31:16.694Z,2.19
2023-04-03T06:31:50.326Z,2.19
2023-04-03T06:32:22.317Z,2.19
2023-04-03T06:32:54.362Z,2.25
2023-04-03T06:33:27.371Z,2.25
2023-04-03T06:33:59.372Z,2.25
2023-04-03T06:34:32.403Z,2.25
2023-04-03T06:35:06.388Z,2.31
2023-04-03T06:35:39.523Z,2.31
2023-04-03T06:36:12.768Z,2.31
2023-04-03T06:36:46.159Z,2.31
2023-04-03T06:37:21.978Z,2.38
2023-04-03T06:37:55.000Z,2.38
2023-04-03T06:38:26.939Z,2.38
2023-04-03T06:38:58.913Z,2.38
2023-04-03T06:39:31.961Z,2.38
2023-04-03T06:40:04.422Z,2.44
2023-04-03T06:40:36.971Z,2.44
2023-04-03T06:41:10.326Z,2.44
2023-04-03T06:41:42.513Z,2.50
2023-04-03T06:42:15.786Z,2.50
2023-04-03T06:42:58.521Z,2.50
2023-04-03T06:44:05.337Z,2.56
2023-04-03T06:44:37.385Z,2.56
2023-04-03T06:45:12.383Z,2.56
2023-04-03T06:45:44.446Z,2.63
2023-04-03T06:46:16.978Z,2.63
2023-04-03T06:46:51.275Z,2.63
2023-04-03T06:47:23.338Z,2.69
2023-04-03T06:47:56.601Z,2.69
2023-04-03T06:48:28.688Z,2.75
2023-04-03T06:49:00.848Z,2.75
2023-04-03T06:49:33.883Z,2.75
2023-04-03T06:50:07.634Z,2.81
2023-04-03T06:50:40.875Z,2.81
2023-04-03T06:51:22.301Z,2.81
2023-04-03T06:51:55.422Z,2.81
2023-04-03T06:52:28.756Z,2.88
2023-04-03T06:53:02.071Z,2.88
2023-04-03T06:53:34.071Z,2.88
2023-04-03T06:54:07.048Z,2.88
2023-04-03T06:54:40.483Z,2.94
2023-04-03T06:55:12.828Z,2.94
2023-04-03T06:55:44.824Z,2.94
2023-04-03T06:56:18.190Z,2.94
2023-04-03T06:56:51.383Z,3.00
2023-04-03T06:57:23.479Z,3.00
2023-04-03T06:57:56.412Z,3.00
2023-04-03T06:58:29.608Z,3.00
2023-04-03T06:59:01.854Z,3.00
2023-04-03T06:59:35.098Z,3.00
2023-04-03T07:00:10.146Z,3.06
2023-04-03T07:00:43.148Z,3.06
2023-04-03T07:01:17.325Z,3.06
2023-04-03T07:01:50.351Z,3.13
2023-04-03T07:02:22.818Z,3.13
2023-04-03T07:02:54.999Z,3.13
2023-04-03T07:03:28.782Z,3.19
2023-04-03T07:04:01.206Z,3.19
2023-04-03T07:04:34.372Z,3.19
2023-04-03T07:05:07.387Z,3.19
2023-04-03T07:05:41.092Z,3.25
2023-04-03T07:06:15.100Z,3.25
2023-04-03T07:06:47.836Z,3.31
2023-04-03T07:07:20.811Z,3.38
2023-04-03T07:07:54.190Z,3.38
2023-04-03T07:08:27.249Z,3.44
2023-04-03T07:08:59.233Z,3.44
2023-04-03T07:09:32.193Z,3.44
2023-04-03T07:10:05.005Z,3.50
2023-04-03T07:10:39.686Z,3.50
2023-04-03T07:11:12.971Z,3.56
2023-04-03T07:11:46.057Z,3.56
2023-04-03T07:12:18.118Z,3.56
2023-04-03T07:12:51.065Z,3.63
2023-04-03T07:13:23.041Z,3.56
2023-04-03T07:13:55.109Z,3.63
2023-04-03T07:14:28.188Z,3.63
2023-04-03T07:15:00.302Z,3.63
2023-04-03T07:15:33.270Z,3.69
2023-04-03T07:16:07.269Z,3.69
2023-04-03T07:16:41.033Z,3.75
2023-04-03T07:17:15.589Z,3.75
2023-04-03T07:17:47.635Z,3.75
2023-04-03T07:18:22.269Z,3.81
2023-04-03T07:18:54.209Z,3.88
2023-04-03T07:19:28.927Z,3.88
2023-04-03T07:20:01.907Z,3.88
2023-04-03T07:20:37.332Z,3.88
2023-04-03T07:21:11.386Z,3.94
2023-04-03T07:21:44.395Z,3.94
2023-04-03T07:22:17.703Z,3.94
2023-04-03T07:22:49.796Z,4.00
2023-04-03T07:23:25.478Z,4.00
2023-04-03T07:23:57.646Z,4.00
2023-04-03T07:24:31.000Z,4.06
2023-04-03T07:25:03.760Z,4.00
2023-04-03T07:25:36.063Z,4.00
2023-04-03T07:26:09.209Z,4.06
2023-04-03T07:26:41.256Z,4.06
2023-04-03T07:27:14.740Z,4.06
2023-04-03T07:27:46.679Z,4.13
2023-04-03T07:28:21.418Z,4.13
2023-04-03T07:28:53.497Z,4.19
2023-04-03T07:29:25.489Z,4.19